Time;durP1;ratioP1;P1;durP2;ratioP2;P2;SDS_P1;SDS_P2;PMS_P1;PMS_P2;Temp;Humidity;BMP_temperature;BMP_pressure;BME280_temperature;BME280_humidity;BME280_pressure;Samples;Min_cycle;Max_cycle;Signal;HPM_P1;HPM_P2
2021/10/17 00:01:05;;;;;;;13.88;11.50;;;;;;;16.83;54.37;101685.37;1733940;82;21047;-50
2021/10/17 00:03:32;;;;;;;14.85;13.15;;;;;;;16.81;54.52;101688.05;1726908;82;21062;-49
2021/10/17 00:05:59;;;;;;;12.65;11.35;;;;;;;16.81;54.58;101687.19;1722725;82;21542;-50
2021/10/17 00:08:26;;;;;;;17.00;11.88;;;;;;;16.80;54.57;101688.95;1729389;82;21102;-49
2021/10/17 00:10:52;;;;;;;12.55;11.15;;;;;;;16.79;54.71;101686.38;1730259;82;20999;-50
2021/10/17 00:13:19;;;;;;;15.08;11.55;;;;;;;16.76;54.82;101689.09;1729953;82;21507;-50
2021/10/17 00:15:45;;;;;;;13.75;12.18;;;;;;;16.71;54.93;101688.39;1715267;82;21011;-50
2021/10/17 00:18:12;;;;;;;13.68;11.97;;;;;;;16.67;55.01;101673.64;1728141;82;21074;-49
2021/10/17 00:20:39;;;;;;;16.10;12.80;;;;;;;16.65;54.93;101672.83;1730227;82;21035;-50
2021/10/17 00:23:06;;;;;;;13.83;12.37;;;;;;;16.65;54.99;101676.77;1729028;82;21043;-50
2021/10/17 00:25:34;;;;;;;14.65;11.73;;;;;;;16.65;55.08;101675.45;1727235;82;21070;-50
2021/10/17 00:28:01;;;;;;;14.70;11.43;;;;;;;16.67;55.09;101676.27;1727484;82;21011;-49
2021/10/17 00:30:33;;;;;;;16.05;11.95;;;;;;;16.69;54.94;101674.45;1722419;82;21034;-51
2021/10/17 00:33:01;;;;;;;14.40;12.35;;;;;;;16.70;55.01;101670.89;1727174;82;21038;-49
2021/10/17 00:35:28;;;;;;;13.88;12.25;;;;;;;16.72;54.90;101670.39;1729215;82;20995;-51
2021/10/17 00:37:55;;;;;;;12.82;11.53;;;;;;;16.73;54.88;101672.12;1730521;82;21038;-50
2021/10/17 00:40:22;;;;;;;13.45;11.35;;;;;;;16.74;54.89;101685.65;1729850;82;21038;-49
2021/10/17 00:42:49;;;;;;;13.35;11.93;;;;;;;16.75;55.07;101684.76;1727505;82;21035;-50
2021/10/17 00:45:19;;;;;;;15.38;12.20;;;;;;;16.75;55.16;101686.94;1732896;82;21547;-49
2021/10/17 00:47:46;;;;;;;14.70;11.43;;;;;;;16.75;55.17;101688.70;1730719;82;20990;-49
2021/10/17 00:50:13;;;;;;;13.50;11.48;;;;;;;16.76;54.98;101683.83;1730380;82;21050;-50
2021/10/17 00:52:42;;;;;;;12.60;11.22;;;;;;;16.74;54.93;101683.02;1727908;82;20995;-50
2021/10/17 00:55:12;;;;;;;12.68;11.38;;;;;;;16.74;54.89;101683.02;1727451;82;21050;-50
2021/10/17 00:57:40;;;;;;;13.35;11.95;;;;;;;16.72;54.82;101687.47;1727478;82;21046;-49
2021/10/17 01:00:08;;;;;;;13.15;11.75;;;;;;;16.69;54.77;101678.39;1727311;82;21563;-49
2021/10/17 01:02:35;;;;;;;12.58;11.28;;;;;;;16.66;54.83;101677.16;1732967;82;21510;-49
2021/10/17 01:05:02;;;;;;;12.73;11.43;;;;;;;16.65;54.72;101680.71;1736836;82;21097;-49
2021/10/17 01:07:29;;;;;;;12.45;10.90;;;;;;;16.64;54.72;101680.29;1738566;82;21058;-49
2021/10/17 01:09:56;;;;;;;13.43;11.43;;;;;;;16.63;54.51;101673.33;1738445;82;21069;-50
2021/10/17 01:12:24;;;;;;;12.40;10.85;;;;;;;16.64;54.22;101676.34;1736244;82;22450;-50
2021/10/17 01:14:53;;;;;;;12.40;11.10;;;;;;;16.65;54.04;101678.08;1735844;82;21042;-51
2021/10/17 01:17:19;;;;;;;14.15;10.60;;;;;;;16.64;53.92;101675.03;1736202;82;21010;-50
2021/10/17 01:19:47;;;;;;;12.07;10.68;;;;;;;16.64;53.78;101676.34;1735487;82;21517;-49
2021/10/17 01:22:20;;;;;;;14.33;11.75;;;;;;;16.64;53.71;101673.72;1735567;82;21053;-49
2021/10/17 01:24:48;;;;;;;15.48;11.60;;;;;;;16.65;53.74;101677.60;1735707;82;21014;-50
2021/10/17 01:27:15;;;;;;;12.73;10.70;;;;;;;16.67;53.47;101673.64;1735330;82;21074;-49
2021/10/17 01:29:42;;;;;;;11.83;10.50;;;;;;;16.67;53.39;101674.95;1736028;82;21031;-51
2021/10/17 01:32:09;;;;;;;13.58;12.18;;;;;;;16.66;53.22;101671.91;1734349;82;21054;-50
2021/10/17 01:34:36;;;;;;;13.48;12.10;;;;;;;16.64;53.07;101672.41;1738411;82;21094;-50
2021/10/17 01:37:04;;;;;;;15.00;11.57;;;;;;;16.62;53.17;101672.46;1737115;82;20987;-49
2021/10/17 01:39:31;;;;;;;15.08;12.07;;;;;;;16.61;53.05;101683.03;1735304;82;21027;-49
2021/10/17 01:41:58;;;;;;;13.88;12.05;;;;;;;16.57;53.16;101680.09;1735271;82;21030;-49
2021/10/17 01:44:33;;;;;;;13.32;11.48;;;;;;;16.56;53.18;101678.36;1735366;82;21050;-50
2021/10/17 01:47:00;;;;;;;15.13;11.60;;;;;;;16.56;53.16;101676.60;1735542;82;21019;-50
2021/10/17 01:49:28;;;;;;;14.83;12.43;;;;;;;16.55;53.19;101680.13;1735691;82;21530;-50
2021/10/17 01:51:55;;;;;;;13.90;12.43;;;;;;;16.56;53.22;101684.93;1737871;82;21034;-50
2021/10/17 01:54:23;;;;;;;13.03;11.57;;;;;;;16.56;53.38;101687.11;1738435;82;21007;-50
2021/10/17 01:56:51;;;;;;;14.03;12.10;;;;;;;16.59;53.50;101691.42;1737591;82;21088;-49
2021/10/17 01:59:19;;;;;;;13.68;11.95;;;;;;;16.60;53.34;101690.50;1735772;82;20999;-50
2021/10/17 02:01:49;;;;;;;14.45;11.57;;;;;;;16.60;53.31;101693.12;1732875;82;21070;-50
2021/10/17 02:04:15;;;;;;;14.50;12.05;;;;;;;16.58;53.36;101689.69;1737864;82;21011;-48
2021/10/17 02:06:42;;;;;;;14.45;12.60;;;;;;;16.55;53.31;101687.17;1738585;82;20998;-49
2021/10/17 02:09:10;;;;;;;13.25;11.88;;;;;;;16.53;53.38;101683.70;1738197;82;21022;-49
2021/10/17 02:11:37;;;;;;;13.88;11.93;;;;;;;16.51;53.44;101687.70;1735626;82;21012;-50
2021/10/17 02:14:05;;;;;;;14.55;13.05;;;;;;;16.50;53.45;101687.30;1735450;82;21031;-50
2021/10/17 02:16:31;;;;;;;14.50;12.30;;;;;;;16.50;53.62;101695.63;1730688;82;21018;-48
2021/10/17 02:18:58;;;;;;;13.98;12.23;;;;;;;16.48;53.64;101694.79;1708560;82;21522;-50
2021/10/17 02:21:24;;;;;;;16.37;12.98;;;;;;;16.44;53.63;101691.85;1736534;82;20999;-50
2021/10/17 02:23:54;;;;;;;14.53;12.07;;;;;;;16.40;53.94;101693.72;1734176;82;21515;-50
2021/10/17 02:26:21;;;;;;;16.97;12.43;;;;;;;16.39;53.81;101696.38;1733853;82;21002;-51
2021/10/17 02:29:06;;;;;;;14.45;12.50;;;;;;;16.39;53.96;101693.75;1734544;82;21003;-50
2021/10/17 02:31:35;;;;;;;13.55;11.73;;;;;;;16.39;53.85;101699.00;1737831;82;21014;-49
2021/10/17 02:34:02;;;;;;;13.95;12.00;;;;;;;16.38;53.85;101697.30;1735294;82;21070;-52
2021/10/17 02:36:29;;;;;;;15.10;12.60;;;;;;;16.38;53.99;101698.61;1735726;82;21494;-50
2021/10/17 02:38:56;;;;;;;14.35;12.05;;;;;;;16.40;53.92;101704.23;1737536;82;21069;-50
2021/10/17 02:41:23;;;;;;;13.15;11.83;;;;;;;16.42;53.81;101708.12;1738595;82;20998;-50
2021/10/17 02:43:50;;;;;;;15.45;12.15;;;;;;;16.43;53.75;101699.31;1737218;82;21019;-49
2021/10/17 02:46:17;;;;;;;14.07;12.60;;;;;;;16.42;53.68;101702.41;1736040;82;21054;-49
2021/10/17 02:48:44;;;;;;;14.95;13.05;;;;;;;16.42;53.71;101705.48;1734341;82;21085;-52
2021/10/17 02:51:12;;;;;;;12.63;11.30;;;;;;;16.43;53.61;101704.13;1734267;82;21023;-50
2021/10/17 02:53:39;;;;;;;15.83;13.08;;;;;;;16.45;53.62;101708.00;1740110;82;21034;-50
2021/10/17 02:56:08;;;;;;;14.93;13.05;;;;;;;16.43;53.74;101708.06;1737749;82;21071;-50
2021/10/17 02:58:35;;;;;;;14.20;12.70;;;;;;;16.43;53.82;101711.13;1735356;82;21027;-49
2021/10/17 03:01:02;;;;;;;14.00;12.13;;;;;;;16.41;53.90;101707.69;1735534;82;21034;-50
2021/10/17 03:03:30;;;;;;;14.58;13.00;;;;;;;16.39;53.86;101706.88;1712198;82;21578;-49
2021/10/17 03:05:59;;;;;;;18.25;13.38;;;;;;;16.37;53.99;101703.44;1742418;82;21082;-50
2021/10/17 03:08:27;;;;;;;15.90;14.20;;;;;;;16.33;54.12;101713.19;1736257;82;22028;-48
2021/10/17 03:10:56;;;;;;;15.78;14.18;;;;;;;16.34;54.24;101714.06;1738580;82;21066;-51
2021/10/17 03:13:23;;;;;;;17.98;15.85;;;;;;;16.37;54.19;101710.01;1734290;82;21085;-49
2021/10/17 03:15:50;;;;;;;15.48;13.80;;;;;;;16.36;54.18;101717.50;1740786;82;21023;-49
2021/10/17 03:18:19;;;;;;;14.87;13.32;;;;;;;16.35;54.24;101713.14;1738554;82;21046;-50
2021/10/17 03:20:45;;;;;;;15.63;12.80;;;;;;;16.34;54.31;101712.75;1735747;82;21046;-51
2021/10/17 03:23:12;;;;;;;15.72;14.10;;;;;;;16.34;54.31;101716.69;1736034;82;21002;-49
2021/10/17 03:25:39;;;;;;;18.82;14.38;;;;;;;16.33;54.41;101713.19;1736071;82;21023;-50
2021/10/17 03:28:06;;;;;;;16.20;13.70;;;;;;;16.33;54.49;101711.87;1732693;82;21058;-50
2021/10/17 03:30:34;;;;;;;17.20;14.00;;;;;;;16.32;54.51;101710.63;1736760;82;21086;-50
2021/10/17 03:33:02;;;;;;;16.17;14.20;;;;;;;16.30;54.66;101710.20;1738254;82;21486;-50
2021/10/17 03:35:29;;;;;;;16.10;14.40;;;;;;;16.30;54.61;101714.14;1711915;82;21038;-49
2021/10/17 03:37:56;;;;;;;18.20;14.85;;;;;;;16.29;54.68;101722.07;1739115;82;21011;-49
2021/10/17 03:40:23;;;;;;;17.15;14.70;;;;;;;16.24;54.87;101719.58;1737069;82;21034;-50
2021/10/17 03:42:51;;;;;;;16.45;14.65;;;;;;;16.20;54.97;101721.88;1735758;82;21053;-50
2021/10/17 03:45:19;;;;;;;15.90;14.25;;;;;;;16.18;55.10;101719.76;1735942;82;21058;-50
2021/10/17 03:47:47;;;;;;;15.60;14.03;;;;;;;16.16;55.27;101720.70;1735954;82;21065;-49
2021/10/17 03:50:14;;;;;;;16.80;14.40;;;;;;;16.13;55.39;101720.36;1735885;82;21026;-51
2021/10/17 03:52:40;;;;;;;16.90;14.60;;;;;;;16.13;55.37;101720.36;1737699;82;21502;-50
2021/10/17 03:55:09;;;;;;;17.30;14.47;;;;;;;16.13;55.38;101721.67;1739113;82;21042;-49
2021/10/17 03:57:36;;;;;;;17.40;14.58;;;;;;;16.13;55.45;101724.30;1739076;82;21090;-52
2021/10/17 04:00:05;;;;;;;18.12;14.83;;;;;;;16.12;55.46;101725.19;1736419;82;22660;-50
2021/10/17 04:02:34;;;;;;;16.67;14.95;;;;;;;16.12;55.33;101730.44;1687946;84;21089;-49
2021/10/17 04:05:02;;;;;;;16.77;15.03;;;;;;;16.12;55.52;101725.64;1734522;82;21479;-49
2021/10/17 04:07:30;;;;;;;17.32;15.03;;;;;;;16.12;55.52;101730.44;1735146;82;21023;-50
2021/10/17 04:09:57;;;;;;;19.27;15.28;;;;;;;16.13;55.55;101733.94;1735345;82;21069;-50
2021/10/17 04:12:24;;;;;;;18.45;15.83;;;;;;;16.13;55.54;101731.31;1735546;82;21054;-49
2021/10/17 04:14:52;;;;;;;18.35;14.87;;;;;;;16.13;55.58;101737.43;1732092;82;21482;-49
2021/10/17 04:17:19;;;;;;;17.35;15.53;;;;;;;16.14;55.63;101736.52;1738228;82;21042;-50
2021/10/17 04:19:46;;;;;;;18.90;16.35;;;;;;;16.15;55.69;101741.31;1738537;82;21585;-50
2021/10/17 04:22:13;;;;;;;17.92;16.07;;;;;;;16.15;55.70;101743.50;1736269;82;21076;-50
2021/10/17 04:24:39;;;;;;;18.82;16.50;;;;;;;16.16;55.76;101748.27;1736460;82;21074;-50
2021/10/17 04:27:08;;;;;;;18.60;16.70;;;;;;;16.17;55.75;101754.81;1733171;82;21079;-48
2021/10/17 04:29:36;;;;;;;22.13;17.02;;;;;;;16.17;55.73;101750.88;1735805;82;21535;-50
2021/10/17 04:32:04;;;;;;;18.23;16.17;;;;;;;16.17;55.77;101757.89;1735567;81;21018;-50
2021/10/17 04:34:32;;;;;;;19.70;16.62;;;;;;;16.18;55.79;101759.15;1735673;82;21034;-49
2021/10/17 04:36:58;;;;;;;21.52;18.12;;;;;;;16.18;55.74;101761.77;1737344;82;21493;-49
2021/10/17 04:39:27;;;;;;;19.30;16.50;;;;;;;16.15;55.72;101761.88;1738610;82;21471;-48
2021/10/17 04:41:54;;;;;;;19.42;17.20;;;;;;;16.15;55.83;101757.07;1738178;82;21010;-50
2021/10/17 04:44:21;;;;;;;20.92;17.40;;;;;;;16.12;55.84;101761.95;1736163;82;21030;-49
2021/10/17 04:46:48;;;;;;;19.90;17.67;;;;;;;16.12;55.98;101765.89;1736694;82;21027;-50
2021/10/17 04:49:15;;;;;;;20.52;17.27;;;;;;;16.10;56.03;101765.52;1726963;82;21066;-50
2021/10/17 04:51:42;;;;;;;19.73;16.60;;;;;;;16.10;56.10;101771.64;1736628;82;21022;-49
2021/10/17 04:54:09;;;;;;;20.68;17.37;;;;;;;16.09;56.12;101779.09;1734526;82;21046;-49
2021/10/17 04:56:37;;;;;;;18.77;16.87;;;;;;;16.08;56.16;101778.70;1738367;82;20987;-50
2021/10/17 04:59:04;;;;;;;21.02;17.67;;;;;;;16.07;56.13;101776.13;1738740;82;21006;-50
2021/10/17 05:01:32;;;;;;;20.32;18.02;;;;;;;16.06;56.19;101777.88;1736973;82;21038;-50
2021/10/17 05:04:00;;;;;;;21.62;16.90;;;;;;;16.07;56.22;101779.59;1728872;81;20987;-48
2021/10/17 05:06:27;;;;;;;21.85;17.30;;;;;;;16.07;56.32;101778.27;1727629;82;21062;-49
2021/10/17 05:08:54;;;;;;;19.35;17.37;;;;;;;16.08;56.24;101782.63;1727207;82;21023;-50
2021/10/17 05:11:25;;;;;;;20.60;17.70;;;;;;;16.07;56.35;101784.84;1727560;82;21010;-49
2021/10/17 05:13:52;;;;;;;21.30;17.27;;;;;;;16.06;56.33;101787.07;1728740;82;21054;-49
2021/10/17 05:16:21;;;;;;;20.45;16.50;;;;;;;16.08;56.28;101790.95;1730043;82;21008;-50
2021/10/17 05:18:48;;;;;;;20.48;17.50;;;;;;;16.08;56.37;101801.02;1730622;82;21026;-50
2021/10/17 05:21:14;;;;;;;22.65;17.65;;;;;;;16.09;56.35;101800.57;1727394;82;20999;-50
2021/10/17 05:23:41;;;;;;;22.30;17.62;;;;;;;16.10;56.37;101797.02;1729425;82;21043;-50
2021/10/17 05:26:07;;;;;;;21.55;18.15;;;;;;;16.11;56.48;101802.25;1730605;82;20967;-50
2021/10/17 05:28:35;;;;;;;21.23;17.85;;;;;;;16.14;56.45;101802.16;1730542;82;20983;-49
2021/10/17 05:31:05;;;;;;;22.25;18.45;;;;;;;16.16;56.40;101809.53;1714331;82;21087;-50
2021/10/17 05:33:36;;;;;;;20.68;17.75;;;;;;;16.20;56.53;101810.30;1728606;82;21034;-50
2021/10/17 05:36:05;;;;;;;23.55;18.57;;;;;;;16.21;56.59;101811.59;1729662;82;21038;-49
2021/10/17 05:38:32;;;;;;;21.62;17.62;;;;;;;16.22;56.58;101818.55;1656712;85;21541;-53
2021/10/17 05:41:00;;;;;;;20.95;18.60;;;;;;;16.22;56.52;101822.49;1679976;85;21006;-49
2021/10/17 05:43:27;;;;;;;21.45;18.00;;;;;;;16.20;56.51;101822.98;1679176;85;21565;-49
2021/10/17 05:45:54;;;;;;;23.00;19.02;;;;;;;16.20;56.51;101823.44;1677464;85;21127;-52
2021/10/17 05:48:21;;;;;;;21.75;18.45;;;;;;;16.20;56.34;101829.55;1673210;85;21034;-51
2021/10/17 05:50:48;;;;;;;24.30;19.25;;;;;;;16.19;56.45;101826.53;1678910;85;21070;-52
2021/10/17 05:53:15;;;;;;;22.32;18.12;;;;;;;16.21;56.56;101833.92;1679805;85;21038;-50
2021/10/17 05:55:41;;;;;;;20.15;17.98;;;;;;;16.22;56.49;101829.06;1679424;85;21580;-51
2021/10/17 05:58:09;;;;;;;21.05;17.98;;;;;;;16.24;56.35;101835.12;1677497;85;21054;-52
2021/10/17 06:00:36;;;;;;;21.02;18.82;;;;;;;16.23;56.25;101836.05;1679185;85;21041;-51
2021/10/17 06:03:03;;;;;;;23.10;18.48;;;;;;;16.22;56.23;101838.25;1673758;85;21108;-50
2021/10/17 06:05:32;;;;;;;21.52;18.75;;;;;;;16.24;56.21;101835.12;1664258;85;21502;-49
2021/10/17 06:08:01;;;;;;;21.00;18.70;;;;;;;16.26;56.11;101835.08;1672794;84;21046;-51
2021/10/17 06:10:28;;;;;;;21.37;18.02;;;;;;;16.25;56.19;101836.00;1663585;85;21542;-51
2021/10/17 06:12:55;;;;;;;23.70;19.48;;;;;;;16.26;56.15;101843.83;1671909;85;21093;-51
2021/10/17 06:15:22;;;;;;;21.40;18.57;;;;;;;16.27;56.16;101840.75;1670074;85;21614;-52
2021/10/17 06:17:49;;;;;;;23.75;19.23;;;;;;;16.28;56.26;101842.02;1670229;85;21494;-51
2021/10/17 06:20:15;;;;;;;23.25;19.73;;;;;;;16.30;56.13;101841.97;1668998;85;21514;-50
2021/10/17 06:22:44;;;;;;;28.30;21.05;;;;;;;16.29;56.05;101841.13;1671090;85;20994;-50
2021/10/17 06:25:12;;;;;;;21.15;18.82;;;;;;;16.28;56.08;101852.52;1670072;85;21534;-50
2021/10/17 06:27:39;;;;;;;21.07;18.37;;;;;;;16.42;55.90;101856.54;1670427;85;21038;-50
2021/10/17 06:30:06;;;;;;;22.27;18.90;;;;;;;16.46;55.77;101855.55;1667389;85;21041;-50
2021/10/17 06:32:33;;;;;;;22.27;19.37;;;;;;;16.46;55.70;101857.73;1670094;85;21073;-51
2021/10/17 06:35:00;;;;;;;25.43;20.57;;;;;;;16.47;55.74;101858.13;1688296;83;21022;-50
2021/10/17 06:37:27;;;;;;;21.85;19.07;;;;;;;16.49;55.76;101852.81;1718143;83;21042;-51
2021/10/17 06:39:54;;;;;;;23.85;19.17;;;;;;;16.50;55.65;101851.52;1717970;83;21082;-50
2021/10/17 06:42:21;;;;;;;24.23;19.75;;;;;;;16.51;55.71;101857.61;1712166;83;21002;-51
2021/10/17 06:45:08;;;;;;;25.75;19.98;;;;;;;16.52;55.65;101858.90;1713443;83;21041;-51
2021/10/17 06:47:35;;;;;;;22.67;19.65;;;;;;;16.40;55.90;101860.97;1718468;83;21478;-50
2021/10/17 06:50:02;;;;;;;23.42;19.80;;;;;;;16.41;56.02;101863.99;1718483;83;21030;-50
2021/10/17 06:52:29;;;;;;;23.02;20.30;;;;;;;16.56;55.65;101854.41;1718539;83;21561;-51
2021/10/17 06:54:55;;;;;;;22.35;19.73;;;;;;;16.60;55.65;101859.98;1718556;83;21175;-50
2021/10/17 06:57:22;;;;;;;21.90;19.60;;;;;;;16.63;55.47;101865.16;1718113;83;21482;-52
2021/10/17 06:59:50;;;;;;;21.75;19.45;;;;;;;16.66;55.37;101861.98;1718456;83;20998;-49
2021/10/17 07:02:17;;;;;;;22.10;19.67;;;;;;;16.72;55.27;101863.56;1718516;83;21043;-50
2021/10/17 07:04:44;;;;;;;21.87;18.95;;;;;;;16.80;55.24;101869.45;1738923;82;21510;-50
2021/10/17 07:07:11;;;;;;;24.70;20.55;;;;;;;16.84;55.21;101869.31;1734861;82;21058;-49
2021/10/17 07:09:37;;;;;;;22.77;20.37;;;;;;;16.92;55.08;101869.08;1735920;82;21030;-50
2021/10/17 07:12:08;;;;;;;23.65;19.20;;;;;;;16.97;54.97;101867.19;1731319;82;21538;-50
2021/10/17 07:14:34;;;;;;;24.98;19.48;;;;;;;17.03;54.85;101869.62;1738435;82;21539;-50
2021/10/17 07:17:03;;;;;;;23.07;19.35;;;;;;;17.05;54.81;101858.61;1675196;85;21081;-51
2021/10/17 07:19:31;;;;;;;23.52;20.95;;;;;;;17.07;54.84;101864.67;1674173;85;21058;-50
2021/10/17 07:21:58;;;;;;;24.75;21.20;;;;;;;17.09;54.83;101867.67;1672359;85;21038;-50
2021/10/17 07:24:25;;;;;;;27.13;22.50;;;;;;;17.12;54.99;101865.41;1674794;85;21030;-52
2021/10/17 07:26:53;;;;;;;24.20;20.75;;;;;;;17.13;55.17;101870.19;1675872;85;21094;-51
2021/10/17 07:29:20;;;;;;;24.37;21.60;;;;;;;17.13;55.30;101868.43;1674860;85;21074;-51
2021/10/17 07:31:46;;;;;;;23.75;21.02;;;;;;;17.04;55.56;101863.47;1662518;85;21538;-50
2021/10/17 07:34:14;;;;;;;24.98;21.48;;;;;;;16.96;55.84;101862.84;1674747;85;21042;-51
2021/10/17 07:36:40;;;;;;;26.52;22.77;;;;;;;16.96;56.04;101866.80;1671901;85;21121;-52
2021/10/17 07:39:12;;;;;;;26.73;22.42;;;;;;;16.91;56.12;101866.06;1669543;85;21046;-52
2021/10/17 07:41:45;;;;;;;27.70;21.73;;;;;;;16.89;56.27;101867.87;1670809;85;21075;-52
2021/10/17 07:44:08;;;;;;;27.30;22.82;;;;;;;16.87;56.40;101865.74;1668310;85;21099;-49
2021/10/17 07:46:37;;;;;;;26.68;23.18;;;;;;;16.84;56.42;101860.56;1657437;85;21530;-49
2021/10/17 07:49:06;;;;;;;24.63;21.60;;;;;;;16.84;56.50;101867.13;1668842;85;21023;-50
2021/10/17 07:51:33;;;;;;;26.23;22.82;;;;;;;16.83;56.56;101869.38;1665151;85;21067;-49
2021/10/17 07:54:02;;;;;;;25.68;22.20;;;;;;;16.82;56.62;101867.63;1671076;85;21539;-49
2021/10/17 07:56:30;;;;;;;26.10;22.67;;;;;;;16.82;56.61;101871.58;1666930;85;21094;-49
2021/10/17 07:58:57;;;;;;;25.23;21.97;;;;;;;16.83;56.70;101868.06;1669234;85;21550;-49
2021/10/17 08:01:25;;;;;;;26.73;22.93;;;;;;;16.83;56.79;101872.00;1667597;85;21547;-51
2021/10/17 08:04:10;;;;;;;28.40;23.38;;;;;;;16.85;56.72;101876.76;1676763;85;21018;-50
2021/10/17 08:06:39;;;;;;;28.10;23.47;;;;;;;16.85;56.78;101873.69;1668201;85;21070;-50
2021/10/17 08:09:08;;;;;;;25.15;22.30;;;;;;;16.73;57.18;101881.06;1684030;85;21094;-51
2021/10/17 08:11:34;;;;;;;25.00;22.25;;;;;;;16.68;57.39;101877.70;1681803;85;21096;-51
2021/10/17 08:14:03;;;;;;;23.77;21.00;;;;;;;16.69;57.48;101882.06;1681706;85;21073;-51
2021/10/17 08:16:32;;;;;;;25.62;22.85;;;;;;;16.68;57.50;101877.70;1668611;85;21078;-50
2021/10/17 08:18:58;;;;;;;27.17;23.47;;;;;;;16.69;57.51;101875.49;1683016;85;21482;-51
2021/10/17 08:21:27;;;;;;;30.95;23.15;;;;;;;16.69;57.51;101879.44;1689115;84;21117;-48
2021/10/17 08:23:58;;;;;;;28.52;24.05;;;;;;;16.69;57.52;101877.64;1663381;86;21077;-49
2021/10/17 08:26:25;;;;;;;27.48;22.50;;;;;;;16.72;57.56;101879.33;1666237;85;21082;-50
2021/10/17 08:28:53;;;;;;;25.48;22.67;;;;;;;16.74;57.55;101876.20;1666326;86;21006;-51
2021/10/17 08:31:21;;;;;;;27.93;23.35;;;;;;;16.77;57.50;101878.76;1666146;86;21126;-48
2021/10/17 08:33:50;;;;;;;27.22;22.67;;;;;;;16.80;57.47;101885.22;1666434;86;21035;-48
2021/10/17 08:36:19;;;;;;;23.83;21.33;;;;;;;16.81;57.39;101877.31;1647077;86;21113;-52
2021/10/17 08:38:48;;;;;;;28.25;23.30;;;;;;;16.84;57.32;101878.97;1646939;87;21070;-52
2021/10/17 08:41:15;;;;;;;26.35;23.50;;;;;;;16.85;57.22;101875.45;1641264;87;21030;-51
2021/10/17 08:43:50;;;;;;;30.15;22.58;;;;;;;16.84;57.09;101879.83;1641771;87;21057;-51
2021/10/17 08:46:24;;;;;;;25.72;22.93;;;;;;;16.84;57.13;101873.70;1634782;87;21058;-50
2021/10/17 08:48:55;;;;;;;25.60;22.32;;;;;;;16.85;57.11;101875.45;1644022;87;21098;-50
2021/10/17 08:51:25;;;;;;;25.57;21.85;;;;;;;16.87;57.07;101873.63;1644036;87;20990;-51
2021/10/17 08:53:54;;;;;;;23.85;21.07;;;;;;;16.87;57.11;101881.07;1663342;86;21046;-54
2021/10/17 08:56:23;;;;;;;24.57;21.42;;;;;;;16.88;57.09;101878.83;1661106;86;21034;-51
2021/10/17 08:58:51;;;;;;;22.73;20.43;;;;;;;16.88;57.18;101879.28;1666550;86;21011;-51
2021/10/17 09:01:20;;;;;;;23.35;20.48;;;;;;;16.91;57.21;101877.89;1662537;86;21069;-51
2021/10/17 09:03:55;;;;;;;23.10;20.32;;;;;;;16.94;57.24;101873.84;1668841;86;21062;-50
2021/10/17 09:06:26;;;;;;;23.42;20.72;;;;;;;16.98;57.27;101871.55;1648718;86;21065;-51
2021/10/17 09:09:11;;;;;;;24.63;21.10;;;;;;;17.03;57.42;101877.52;1567152;91;21101;-51
2021/10/17 09:11:43;;;;;;;22.75;19.65;;;;;;;17.07;57.59;101883.08;1566741;91;21644;-51
2021/10/17 09:14:14;;;;;;;22.82;20.43;;;;;;;17.09;57.72;101880.82;1580336;91;21082;-52
2021/10/17 09:16:43;;;;;;;24.20;20.82;;;;;;;17.12;57.67;101883.81;1568171;91;21599;-50
2021/10/17 09:19:24;;;;;;;22.00;19.73;;;;;;;17.14;57.69;101882.00;1571052;91;21137;-51
2021/10/17 09:22:06;;;;;;;22.67;19.20;;;;;;;17.16;57.57;101878.88;1547900;92;21069;-52
2021/10/17 09:24:37;;;;;;;20.70;18.35;;;;;;;17.16;57.47;101884.13;1550191;92;21049;-52
2021/10/17 09:27:18;;;;;;;21.30;19.10;;;;;;;17.17;57.39;101885.83;1570577;91;21078;-51
2021/10/17 09:29:48;;;;;;;19.23;17.32;;;;;;;17.18;57.30;101881.00;1570476;91;21069;-51
2021/10/17 09:32:18;;;;;;;21.02;18.37;;;;;;;17.18;57.21;101879.68;1570298;91;21046;-50
2021/10/17 09:35:06;;;;;;;19.92;17.52;;;;;;;17.18;57.12;101879.68;1543528;93;21071;-51
2021/10/17 09:37:41;;;;;;;22.80;17.92;;;;;;;17.18;57.15;101878.37;1462708;98;21133;-52
2021/10/17 09:40:24;;;;;;;21.95;18.52;;;;;;;17.17;57.15;101879.70;1442720;99;21108;-52
2021/10/17 09:49:36;;;;;;;19.57;17.37;;;;;;;17.17;56.89;101874.00;1372211;103;21170;-50
2021/10/17 09:52:17;;;;;;;20.45;16.42;;;;;;;17.16;56.65;101870.98;1361195;105;21636;-49
2021/10/17 09:55:53;;;;;;;18.17;16.00;;;;;;;17.16;56.61;101874.92;1361085;105;21675;-48
2021/10/17 09:58:20;;;;;;;18.37;16.40;;;;;;;17.18;56.46;101870.92;1361331;105;21237;-50
2021/10/17 10:00:47;;;;;;;18.57;16.65;;;;;;;17.20;56.34;101874.36;1361153;105;21136;-50
2021/10/17 10:03:13;;;;;;;19.85;16.30;;;;;;;17.22;56.20;101868.16;1371809;104;21081;-51
2021/10/17 10:05:40;;;;;;;19.73;17.37;;;;;;;17.26;55.89;101866.28;1396815;101;21657;-55
2021/10/17 10:08:07;;;;;;;19.70;17.25;;;;;;;17.28;55.73;101866.64;1403171;101;21166;-50
2021/10/17 10:10:33;;;;;;;17.73;15.72;;;;;;;17.30;55.73;101870.09;1387521;102;21150;-50
2021/10/17 10:13:03;;;;;;;19.35;16.07;;;;;;;17.32;55.71;101869.58;1403319;100;21683;-51
2021/10/17 10:15:30;;;;;;;18.27;15.80;;;;;;;17.35;55.59;101864.20;1396787;102;21190;-50
2021/10/17 10:17:58;;;;;;;19.12;15.58;;;;;;;17.40;55.42;101874.14;1392884;102;21190;-51
2021/10/17 10:20:26;;;;;;;20.52;16.50;;;;;;;17.41;55.14;101869.30;1399279;101;21071;-50
2021/10/17 10:22:53;;;;;;;20.23;16.80;;;;;;;17.43;54.95;101868.80;1397693;100;21103;-50
2021/10/17 10:25:19;;;;;;;18.25;15.38;;;;;;;17.46;54.81;101869.12;1436942;100;21153;-50
2021/10/17 10:27:47;;;;;;;18.27;16.32;;;;;;;17.48;54.85;101869.94;1433747;100;21126;-49
2021/10/17 10:30:31;;;;;;;17.82;15.93;;;;;;;17.47;54.83;101861.20;1413206;101;21114;-52
2021/10/17 10:33:17;;;;;;;17.82;15.53;;;;;;;17.49;54.74;101869.05;1459372;97;21137;-50
2021/10/17 10:36:15;;;;;;;19.50;16.37;;;;;;;17.51;54.64;101864.62;1497788;92;21060;-50
2021/10/17 10:39:02;;;;;;;18.48;15.80;;;;;;;17.51;54.62;101865.48;1548918;92;21092;-51
2021/10/17 10:41:31;;;;;;;17.25;15.18;;;;;;;17.52;54.58;101869.83;1522489;94;21091;-50
2021/10/17 10:44:34;;;;;;;18.98;16.10;;;;;;;17.53;54.56;101871.56;1525534;94;21053;-50
2021/10/17 10:47:24;;;;;;;19.70;15.63;;;;;;;17.51;54.56;101869.88;1579328;90;21063;-51
2021/10/17 10:49:57;;;;;;;17.48;15.18;;;;;;;17.48;54.72;101865.54;1654131;86;21010;-49
2021/10/17 10:52:31;;;;;;;19.85;16.82;;;;;;;17.48;54.86;101862.91;1647826;86;21046;-50
2021/10/17 10:55:03;;;;;;;18.73;16.00;;;;;;;17.49;54.81;101858.10;1647632;87;21022;-50
2021/10/17 10:57:41;;;;;;;17.12;15.32;;;;;;;17.48;54.84;101854.14;1656812;86;21050;-50
2021/10/17 11:00:14;;;;;;;16.65;14.75;;;;;;;17.48;54.91;101855.02;1543589;91;21109;-50
2021/10/17 11:03:16;;;;;;;16.23;14.60;;;;;;;17.51;54.90;101852.78;1501706;94;21110;-52
2021/10/17 11:06:08;;;;;;;15.32;13.72;;;;;;;17.52;54.85;101847.91;1497278;94;21159;-50
2021/10/17 11:08:37;;;;;;;17.48;14.30;;;;;;;17.53;54.85;101847.01;1495744;94;21141;-52
2021/10/17 11:11:03;;;;;;;17.10;15.23;;;;;;;17.52;54.72;101843.51;1495671;94;21157;-50
2021/10/17 11:13:41;;;;;;;17.87;15.90;;;;;;;17.49;54.77;101846.26;1494987;94;21610;-50
2021/10/17 11:16:22;;;;;;;16.05;14.35;;;;;;;17.48;54.91;101845.80;1496860;94;21086;-50
2021/10/17 11:18:58;;;;;;;15.90;14.20;;;;;;;17.49;54.96;101841.00;1484587;94;21142;-51
2021/10/17 11:21:32;;;;;;;16.40;14.18;;;;;;;17.51;54.86;101840.49;1505323;94;21082;-49
2021/10/17 11:23:59;;;;;;;17.52;14.28;;;;;;;17.53;54.92;101842.61;1505351;94;21642;-51
2021/10/17 11:26:26;;;;;;;16.87;14.68;;;;;;;17.56;54.82;101842.49;1505354;94;21132;-48